Terminal Aerodrome Forecast
Issued by NWS

Home | Current Version | Previous Version | Text Only | Print | Product List | Glossary Off
Versions: 1 2 3 4 5 6 7 8 9 10 11 12 13 14 15 16 17 18 19 20 21 22 23 24 25 26 27 28 29 30 31 32 33 34 35 36 37 38 39

000
FTUS43 KGRB 170800 AAA
TAFRHI
TAF AMD
KRHI 170829Z 1708/1806 13003KT 1/4SM FG OVC002
      TEMPO 1708/1710 1/2SM FG
     FM171000 VRB03KT 6SM BR SCT005 BKN050
      TEMPO 1710/1712 2SM -SHRA BR BKN005
     FM171200 32007KT 6SM -SHRA BR BKN009 OVC015
     FM171500 34011G19KT P6SM -SHRA BKN012 OVC020
     FM180100 33009KT P6SM BKN017 OVC025 PROB30 1801/1806 3SM
      -SHRASN=

USA.gov is the U.S. government's official web portal to all federal, state and local government web resources and services.